createdAt,value
2022-09-12T00:00:54.456Z,13.00
2022-09-12T00:01:54.418Z,14.10
2022-09-12T00:02:54.387Z,13.30
2022-09-12T00:03:54.367Z,30.20
2022-09-12T00:04:54.391Z,32.40
2022-09-12T00:05:54.387Z,37.70
2022-09-12T00:06:54.327Z,25.90
2022-09-12T00:07:54.333Z,13.90
2022-09-12T00:08:54.297Z,14.40
2022-09-12T00:09:54.304Z,15.60
2022-09-12T00:10:54.270Z,12.00
2022-09-12T00:11:54.260Z,11.70
2022-09-12T00:12:54.269Z,10.90
2022-09-12T00:13:54.273Z,12.90
2022-09-12T00:14:54.215Z,12.00
2022-09-12T00:15:54.234Z,14.00
2022-09-12T00:16:54.291Z,12.60
2022-09-12T00:17:54.186Z,11.30
2022-09-12T00:18:54.160Z,10.60
2022-09-12T00:19:54.160Z,12.40
2022-09-12T00:20:54.163Z,11.70
2022-09-12T00:21:54.127Z,12.80
2022-09-12T00:22:54.131Z,11.40
2022-09-12T00:23:54.126Z,12.30
2022-09-12T00:24:54.076Z,14.60
2022-09-12T00:25:54.078Z,13.30
2022-09-12T00:26:54.056Z,11.40
2022-09-12T00:27:54.060Z,10.80
2022-09-12T00:28:54.061Z,12.30
2022-09-12T00:29:54.046Z,10.50
2022-09-12T00:30:54.011Z,12.80
2022-09-12T00:31:54.038Z,12.10
2022-09-12T00:32:54.000Z,14.00
2022-09-12T00:33:53.970Z,11.90
2022-09-12T00:34:53.949Z,12.80
2022-09-12T00:35:53.951Z,15.00
2022-09-12T00:36:53.926Z,12.50
2022-09-12T00:37:53.914Z,14.60
2022-09-12T00:38:53.897Z,14.60
2022-09-12T00:39:53.955Z,14.00
2022-09-12T00:40:53.863Z,12.40
2022-09-12T00:41:53.862Z,13.60
2022-09-12T00:42:53.850Z,15.10
2022-09-12T00:43:53.827Z,14.20
2022-09-12T00:44:53.852Z,17.40
2022-09-12T00:45:53.864Z,13.50
2022-09-12T00:46:53.793Z,14.30
2022-09-12T00:47:53.778Z,16.60
2022-09-12T00:48:53.786Z,17.50
2022-09-12T00:49:53.744Z,16.40
2022-09-12T00:50:53.735Z,15.90
2022-09-12T00:51:53.774Z,17.90
2022-09-12T00:52:53.729Z,16.50
2022-09-12T00:53:53.701Z,16.50
2022-09-12T00:54:53.706Z,16.60
2022-09-12T00:55:53.665Z,16.70
2022-09-12T00:56:53.680Z,16.60
2022-09-12T00:57:53.654Z,14.30
2022-09-12T00:58:53.620Z,15.60
2022-09-12T00:59:53.639Z,18.40
2022-09-12T01:00:53.632Z,13.20
2022-09-12T01:01:53.691Z,13.20
2022-09-12T01:02:53.571Z,15.00
2022-09-12T01:03:53.586Z,15.40
2022-09-12T01:04:53.547Z,14.80
2022-09-12T01:05:53.534Z,14.00
2022-09-12T01:06:53.552Z,18.00
2022-09-12T01:07:53.505Z,17.80
2022-09-12T01:08:53.497Z,14.60
2022-09-12T01:09:53.482Z,15.70
2022-09-12T01:10:53.465Z,14.60
2022-09-12T01:11:53.476Z,13.50
2022-09-12T01:12:53.440Z,14.70
2022-09-12T01:13:53.465Z,15.70
2022-09-12T01:14:53.413Z,16.30
2022-09-12T01:15:53.399Z,16.70
2022-09-12T01:16:53.386Z,14.50
2022-09-12T01:17:53.413Z,14.40
2022-09-12T01:18:53.360Z,16.80
2022-09-12T01:19:53.337Z,14.70
2022-09-12T01:20:53.352Z,15.80
2022-09-12T01:21:53.309Z,14.00
2022-09-12T01:22:53.296Z,14.10
2022-09-12T01:23:53.288Z,13.60
2022-09-12T01:24:53.280Z,15.10
2022-09-12T01:25:53.313Z,13.70
2022-09-12T01:26:53.251Z,13.50
2022-09-12T01:27:53.275Z,12.80
2022-09-12T01:28:53.226Z,15.10
2022-09-12T01:29:53.203Z,13.80
2022-09-12T01:30:53.194Z,13.70
2022-09-12T01:31:53.239Z,13.90
2022-09-12T01:32:53.166Z,11.60
2022-09-12T01:33:53.186Z,14.10
2022-09-12T01:34:53.162Z,14.90
2022-09-12T01:35:53.123Z,14.40
2022-09-12T01:36:53.113Z,14.80
2022-09-12T01:37:53.092Z,16.60
2022-09-12T01:38:53.089Z,14.70
2022-09-12T01:39:53.118Z,15.50
2022-09-12T01:40:53.057Z,16.80
2022-09-12T01:41:53.037Z,16.10
2022-09-12T01:42:53.025Z,17.00
2022-09-12T01:43:53.019Z,18.80
2022-09-12T01:44:53.041Z,15.80
2022-09-12T01:45:53.023Z,13.70
2022-09-12T01:46:52.977Z,16.10
2022-09-12T01:47:52.956Z,16.90
2022-09-12T01:48:52.992Z,17.30
2022-09-12T01:49:52.929Z,16.10
2022-09-12T01:50:52.977Z,13.90
2022-09-12T01:51:52.896Z,14.60
2022-09-12T01:52:52.890Z,15.90
2022-09-12T01:53:52.879Z,15.90
2022-09-12T01:54:52.863Z,12.70
2022-09-12T01:55:52.882Z,12.30
2022-09-12T01:56:52.854Z,16.50
2022-09-12T01:57:52.861Z,12.60
2022-09-12T01:58:52.817Z,13.90
2022-09-12T01:59:52.799Z,18.10
2022-09-12T02:04:13.694Z,18.90
2022-09-12T02:05:14.664Z,20.70
2022-09-12T02:06:14.638Z,20.60
2022-09-12T02:07:14.675Z,19.50
2022-09-12T02:08:14.620Z,16.80
2022-09-12T02:09:14.622Z,21.90
2022-09-12T02:10:14.767Z,18.90
2022-09-12T02:11:14.637Z,17.70
2022-09-12T02:12:14.572Z,17.30
2022-09-12T02:13:14.553Z,16.70
2022-09-12T02:14:14.560Z,16.80
2022-09-12T02:15:14.544Z,15.70
2022-09-12T02:16:14.556Z,16.60
2022-09-12T02:17:14.533Z,16.50
2022-09-12T02:18:14.502Z,15.70
2022-09-12T02:19:14.508Z,16.10
2022-09-12T02:20:21.393Z,18.70
2022-09-12T02:21:14.455Z,17.30
2022-09-12T02:22:14.467Z,22.20
2022-09-12T02:23:14.431Z,22.80
2022-09-12T02:24:14.435Z,19.60
2022-09-12T02:25:14.408Z,22.10
2022-09-12T02:26:14.386Z,20.90
2022-09-12T02:27:14.398Z,17.70
2022-09-12T02:28:14.345Z,15.00
2022-09-12T02:29:14.342Z,20.20
2022-09-12T02:30:14.336Z,17.40
2022-09-12T02:31:14.321Z,20.00
2022-09-12T02:32:14.337Z,18.90
2022-09-12T02:33:14.296Z,16.40
2022-09-12T02:34:14.304Z,17.00
2022-09-12T02:35:14.281Z,17.30
2022-09-12T02:36:14.246Z,19.50
2022-09-12T02:37:14.286Z,16.80
2022-09-12T02:38:14.215Z,17.80
2022-09-12T02:39:14.210Z,17.90
2022-09-12T02:40:14.245Z,15.30
2022-09-12T02:41:14.190Z,14.80
2022-09-12T02:42:14.179Z,15.80
2022-09-12T02:43:14.156Z,14.60
2022-09-12T02:44:14.143Z,13.80
2022-09-12T02:45:14.178Z,12.90
2022-09-12T02:46:14.118Z,12.70
2022-09-12T02:47:14.108Z,9.10
2022-09-12T02:48:14.087Z,12.20
2022-09-12T02:49:14.106Z,10.50
2022-09-12T02:50:14.068Z,9.60
2022-09-12T02:51:14.052Z,11.00
2022-09-12T02:52:14.084Z,9.20
2022-09-12T02:53:14.030Z,10.70
2022-09-12T02:54:14.002Z,10.40
2022-09-12T02:55:14.018Z,12.10
2022-09-12T02:56:13.999Z,12.10
2022-09-12T02:57:13.965Z,11.90
2022-09-12T02:58:13.953Z,11.80
2022-09-12T02:59:13.994Z,16.00
2022-09-12T03:00:13.947Z,14.10
2022-09-12T03:01:13.954Z,14.00
2022-09-12T03:02:13.944Z,11.60
2022-09-12T03:03:13.891Z,15.90
2022-09-12T03:04:13.886Z,16.10
2022-09-12T03:05:13.895Z,17.80
2022-09-12T03:06:13.860Z,14.50
2022-09-12T03:07:13.879Z,16.60
2022-09-12T03:08:13.837Z,15.30
2022-09-12T03:09:13.796Z,15.20
2022-09-12T03:10:13.800Z,13.90
2022-09-12T03:11:13.799Z,13.60
2022-09-12T03:12:13.775Z,12.30
2022-09-12T03:13:13.783Z,13.20
2022-09-12T03:14:13.736Z,15.90
2022-09-12T03:15:13.730Z,16.40
2022-09-12T03:16:13.743Z,15.30
2022-09-12T03:17:13.753Z,16.30
2022-09-12T03:18:13.694Z,17.00
2022-09-12T03:19:13.679Z,17.50
2022-09-12T03:20:13.666Z,19.90
2022-09-12T03:21:13.677Z,16.90
2022-09-12T03:22:13.629Z,16.60
2022-09-12T03:23:13.645Z,15.20
2022-09-12T03:24:13.609Z,17.20
2022-09-12T03:25:13.599Z,18.30
2022-09-12T03:26:13.582Z,18.40
2022-09-12T03:27:13.571Z,18.60
2022-09-12T03:28:13.590Z,18.30
2022-09-12T03:29:13.535Z,17.80
2022-09-12T03:30:13.536Z,16.70
2022-09-12T03:31:13.545Z,16.80
2022-09-12T03:32:13.532Z,12.00
2022-09-12T03:33:13.481Z,11.80
2022-09-12T03:34:13.475Z,11.10
2022-09-12T03:35:13.460Z,13.80
2022-09-12T03:36:13.498Z,10.40
2022-09-12T03:37:13.431Z,12.40
2022-09-12T03:38:13.425Z,10.50
2022-09-12T03:39:13.397Z,10.50
2022-09-12T03:40:13.455Z,12.50
2022-09-12T03:41:13.401Z,12.50
2022-09-12T03:42:13.372Z,13.40
2022-09-12T03:43:13.357Z,12.10
2022-09-12T03:44:13.343Z,12.50
2022-09-12T03:45:13.356Z,11.10
2022-09-12T03:46:13.309Z,14.40
2022-09-12T03:47:13.298Z,13.30
2022-09-12T03:48:13.291Z,15.80
2022-09-12T03:49:13.273Z,17.70
2022-09-12T03:50:13.308Z,15.80
2022-09-12T03:51:13.245Z,15.50
2022-09-12T03:52:13.229Z,15.70
2022-09-12T03:53:17.043Z,16.30
2022-09-12T03:54:13.208Z,15.40
2022-09-12T03:55:13.209Z,17.80
2022-09-12T03:56:13.211Z,14.40
2022-09-12T03:57:13.198Z,15.40
2022-09-12T03:58:13.155Z,14.10
2022-09-12T03:59:13.140Z,16.60
2022-09-12T04:00:17.650Z,12.90
2022-09-12T04:01:13.207Z,14.50
2022-09-12T04:02:13.137Z,12.50
2022-09-12T04:03:13.102Z,13.90
2022-09-12T04:04:13.073Z,10.60
2022-09-12T04:05:13.056Z,12.50
2022-09-12T04:06:13.048Z,13.90
2022-09-12T04:07:13.059Z,13.90
2022-09-12T04:08:13.015Z,13.40
2022-09-12T04:09:12.995Z,12.70
2022-09-12T04:10:16.084Z,12.70
2022-09-12T04:11:13.010Z,13.30
2022-09-12T04:12:12.995Z,13.20
2022-09-12T04:13:12.989Z,12.90
2022-09-12T04:14:12.940Z,13.50
2022-09-12T04:15:12.928Z,16.40
2022-09-12T04:16:12.970Z,13.50
2022-09-12T04:17:12.897Z,12.60
2022-09-12T04:18:12.913Z,13.50
2022-09-12T04:19:12.865Z,11.30
2022-09-12T04:20:12.902Z,10.40
2022-09-12T04:21:12.841Z,14.50
2022-09-12T04:22:12.851Z,13.10
2022-09-12T04:23:12.817Z,15.20
2022-09-12T04:24:12.830Z,14.40
2022-09-12T04:25:12.812Z,14.90
2022-09-12T04:26:12.784Z,15.10
2022-09-12T04:27:12.797Z,15.90
2022-09-12T04:28:12.754Z,15.10
2022-09-12T04:29:12.737Z,14.20
2022-09-12T04:30:12.729Z,16.20
2022-09-12T04:31:12.730Z,16.50
2022-09-12T04:32:12.708Z,15.80
2022-09-12T04:33:12.707Z,12.30
2022-09-12T04:34:12.666Z,11.80
2022-09-12T04:35:12.661Z,14.40
2022-09-12T04:36:12.670Z,12.80
2022-09-12T04:37:12.638Z,13.50
2022-09-12T04:38:12.656Z,13.30
2022-09-12T04:39:12.602Z,13.40
2022-09-12T04:40:12.614Z,12.50
2022-09-12T04:41:12.566Z,16.30
2022-09-12T04:42:12.573Z,11.70
2022-09-12T04:43:14.687Z,13.30
2022-09-12T04:44:12.568Z,12.60
2022-09-12T04:45:12.524Z,12.60
2022-09-12T04:46:12.539Z,11.70
2022-09-12T04:47:12.500Z,10.50
2022-09-12T04:48:12.485Z,10.20
2022-09-12T04:49:12.505Z,11.50
2022-09-12T04:50:12.458Z,10.70
2022-09-12T04:51:12.449Z,11.40
2022-09-12T04:52:12.434Z,13.30
2022-09-12T04:53:12.414Z,9.90
2022-09-12T04:54:12.434Z,10.50
2022-09-12T04:55:12.389Z,11.20
2022-09-12T04:56:12.379Z,9.80
2022-09-12T04:57:12.357Z,9.30
2022-09-12T04:58:12.350Z,10.30
2022-09-12T04:59:12.357Z,12.90
2022-09-12T05:00:12.327Z,9.30
2022-09-12T05:01:12.348Z,11.10
2022-09-12T05:02:12.356Z,10.20
2022-09-12T05:03:12.298Z,9.80
2022-09-12T05:04:12.302Z,9.00
2022-09-12T05:05:12.257Z,11.00
2022-09-12T05:06:12.237Z,11.90
2022-09-12T05:07:12.220Z,8.50
2022-09-12T05:08:12.227Z,8.30
2022-09-12T05:09:12.231Z,8.10
2022-09-12T05:10:12.184Z,7.30
2022-09-12T05:11:12.177Z,7.40
2022-09-12T05:12:12.157Z,7.00
2022-09-12T05:13:12.186Z,6.60
2022-09-12T05:14:12.159Z,7.20
2022-09-12T05:15:12.118Z,7.30
2022-09-12T05:16:12.173Z,9.70
2022-09-12T05:17:12.093Z,9.40
2022-09-12T05:18:12.106Z,8.10
2022-09-12T05:19:12.105Z,8.90
2022-09-12T05:20:12.051Z,7.60
2022-09-12T05:21:12.056Z,7.90
2022-09-12T05:22:12.027Z,7.40
2022-09-12T05:23:12.044Z,7.40
2022-09-12T05:24:11.999Z,7.80
2022-09-12T05:25:11.999Z,7.90
2022-09-12T05:26:12.000Z,9.50
2022-09-12T05:27:11.957Z,9.10
2022-09-12T05:28:11.948Z,8.10
2022-09-12T05:29:11.956Z,7.60
2022-09-12T05:30:11.922Z,7.00
2022-09-12T05:31:11.898Z,6.70
2022-09-12T05:32:11.897Z,6.30
2022-09-12T05:33:11.874Z,6.60
2022-09-12T05:34:11.885Z,6.90
2022-09-12T05:35:11.851Z,7.70
2022-09-12T05:36:11.860Z,7.50
2022-09-12T05:37:11.852Z,6.60
2022-09-12T05:38:11.818Z,9.30
2022-09-12T05:39:11.802Z,8.80
2022-09-12T05:40:11.813Z,8.10
2022-09-12T05:41:16.933Z,6.80
2022-09-12T05:42:11.799Z,6.30
2022-09-12T05:43:11.760Z,6.40
2022-09-12T05:44:11.756Z,6.10
2022-09-12T05:45:11.727Z,6.30
2022-09-12T05:46:11.731Z,6.10
2022-09-12T05:47:11.720Z,6.50
2022-09-12T05:48:11.682Z,6.00
2022-09-12T05:49:11.692Z,6.40
2022-09-12T05:50:11.655Z,5.90
2022-09-12T05:51:11.645Z,7.60
2022-09-12T05:52:11.650Z,6.10
2022-09-12T05:53:11.618Z,6.70
2022-09-12T05:54:11.604Z,6.00
2022-09-12T05:55:11.631Z,8.40
2022-09-12T05:56:11.586Z,7.00
2022-09-12T05:57:11.589Z,7.70
2022-09-12T05:58:11.549Z,6.80
2022-09-12T05:59:11.534Z,6.00
2022-09-12T06:00:11.521Z,5.80
2022-09-12T06:01:11.562Z,5.80
2022-09-12T06:02:11.598Z,6.50
2022-09-12T06:03:11.479Z,7.40
2022-09-12T06:04:11.473Z,5.70
2022-09-12T06:05:11.446Z,5.20
2022-09-12T06:06:11.440Z,4.90
2022-09-12T06:07:11.452Z,5.10
2022-09-12T06:08:11.472Z,5.20
2022-09-12T06:09:11.394Z,5.00
2022-09-12T06:10:11.386Z,5.20
2022-09-12T06:11:11.365Z,4.70
2022-09-12T06:12:11.346Z,5.30
2022-09-12T06:13:11.380Z,4.70
2022-09-12T06:14:11.357Z,4.70
2022-09-12T06:15:11.324Z,4.60
2022-09-12T06:16:11.301Z,4.70
2022-09-12T06:17:11.286Z,4.50
2022-09-12T06:18:11.312Z,4.60
2022-09-12T06:19:11.274Z,4.50
2022-09-12T06:20:11.267Z,4.30
2022-09-12T06:21:11.233Z,4.10
2022-09-12T06:22:11.250Z,4.50
2022-09-12T06:23:11.207Z,4.50
2022-09-12T06:24:11.198Z,4.20
2022-09-12T06:25:11.184Z,4.40
2022-09-12T06:26:11.171Z,4.40
2022-09-12T06:27:11.170Z,4.30
2022-09-12T06:28:11.150Z,4.20
2022-09-12T06:29:11.155Z,4.20
2022-09-12T06:30:11.123Z,4.30
2022-09-12T06:31:11.194Z,4.20
2022-09-12T06:32:11.100Z,3.90
2022-09-12T06:33:11.099Z,4.50
2022-09-12T06:34:11.074Z,4.10
2022-09-12T06:35:11.054Z,5.00
2022-09-12T06:36:12.526Z,5.20
2022-09-12T06:37:11.071Z,4.10
2022-09-12T06:38:11.013Z,4.40
2022-09-12T06:39:11.015Z,4.80
2022-09-12T06:40:11.067Z,4.20
2022-09-12T06:41:10.971Z,3.90
2022-09-12T06:42:10.982Z,5.40
2022-09-12T06:43:10.953Z,5.50
2022-09-12T06:44:10.964Z,5.10
2022-09-12T06:45:10.926Z,3.30
2022-09-12T06:46:10.955Z,3.50
2022-09-12T06:47:10.892Z,3.60
2022-09-12T06:48:10.878Z,3.50
2022-09-12T06:49:10.891Z,3.40
2022-09-12T06:50:10.865Z,3.60
2022-09-12T06:51:10.829Z,3.30
2022-09-12T06:52:10.827Z,4.90
2022-09-12T06:53:10.806Z,11.60
2022-09-12T06:54:10.824Z,3.90
2022-09-12T06:55:10.795Z,3.80
2022-09-12T06:56:10.777Z,3.40
2022-09-12T06:57:10.754Z,3.80
2022-09-12T06:58:10.743Z,3.70
2022-09-12T06:59:10.750Z,3.50
2022-09-12T07:00:10.733Z,3.60
2022-09-12T07:01:10.768Z,4.50
2022-09-12T07:02:10.755Z,3.30
2022-09-12T07:03:10.683Z,3.30
2022-09-12T07:04:10.653Z,3.60
2022-09-12T07:05:10.649Z,3.20
2022-09-12T07:06:10.633Z,3.80
2022-09-12T07:07:10.644Z,3.30
2022-09-12T07:08:10.604Z,3.30
2022-09-12T07:09:10.614Z,3.10
2022-09-12T07:10:10.577Z,3.40
2022-09-12T07:11:10.566Z,3.30
2022-09-12T07:12:10.585Z,3.40
2022-09-12T07:13:10.537Z,2.90
2022-09-12T07:14:10.530Z,2.80
2022-09-12T07:15:10.518Z,3.00
2022-09-12T07:16:10.497Z,3.00
2022-09-12T07:17:10.608Z,3.00
2022-09-12T07:18:10.501Z,2.90
2022-09-12T07:19:10.479Z,3.10
2022-09-12T07:20:10.441Z,2.90
2022-09-12T07:21:10.444Z,3.10
2022-09-12T07:22:10.414Z,3.20
2022-09-12T07:23:10.412Z,3.10
2022-09-12T07:24:10.588Z,2.80
2022-09-12T07:25:10.376Z,3.00
2022-09-12T07:26:10.373Z,2.90
2022-09-12T07:27:10.378Z,2.80
2022-09-12T07:28:10.336Z,3.40
2022-09-12T07:29:35.499Z,3.00
2022-09-12T07:30:10.320Z,3.20
2022-09-12T07:31:10.352Z,2.90
2022-09-12T07:32:10.295Z,3.10
2022-09-12T07:33:10.272Z,3.00
2022-09-12T07:34:10.277Z,3.10
2022-09-12T07:35:10.265Z,2.80
2022-09-12T07:36:10.237Z,3.10
2022-09-12T07:37:10.250Z,3.00
2022-09-12T07:38:10.213Z,3.10
2022-09-12T07:39:10.193Z,3.40
2022-09-12T07:40:10.263Z,3.80
2022-09-12T07:41:10.203Z,4.50
2022-09-12T07:42:10.145Z,3.20
2022-09-12T07:43:10.147Z,2.90
2022-09-12T07:44:10.129Z,2.90
2022-09-12T07:45:10.133Z,3.00
2022-09-12T07:46:10.150Z,2.90
2022-09-12T07:47:10.121Z,2.90
2022-09-12T07:48:10.083Z,2.80
2022-09-12T07:49:10.080Z,3.10
2022-09-12T07:50:10.052Z,3.00
2022-09-12T07:51:10.051Z,2.90
2022-09-12T07:52:10.048Z,3.00
2022-09-12T07:53:10.030Z,3.00
2022-09-12T07:54:09.984Z,3.10
2022-09-12T07:55:09.987Z,3.40
2022-09-12T07:56:09.992Z,3.20
2022-09-12T07:57:09.957Z,3.10
2022-09-12T07:58:09.937Z,3.10
2022-09-12T07:59:09.971Z,3.00
2022-09-12T08:00:09.951Z,2.90
2022-09-12T08:01:09.937Z,3.90
2022-09-12T08:02:12.451Z,2.60
2022-09-12T08:03:09.874Z,2.90
2022-09-12T08:04:09.922Z,2.70
2022-09-12T08:05:09.844Z,2.60
2022-09-12T08:06:09.854Z,3.40
2022-09-12T08:07:09.819Z,2.60
2022-09-12T08:08:09.799Z,3.00
2022-09-12T08:09:09.788Z,2.60
2022-09-12T08:10:09.774Z,3.00
2022-09-12T08:11:09.789Z,3.00
2022-09-12T08:12:09.790Z,2.80
2022-09-12T08:13:10.925Z,3.10
2022-09-12T08:14:09.741Z,3.10
2022-09-12T08:15:09.707Z,3.00
2022-09-12T08:16:09.768Z,2.80
2022-09-12T08:17:09.682Z,3.40
2022-09-12T08:18:09.689Z,2.50
2022-09-12T08:19:09.713Z,2.80
2022-09-12T08:20:09.643Z,3.10
2022-09-12T08:21:09.632Z,2.80
2022-09-12T08:22:09.645Z,2.70
2022-09-12T08:23:09.607Z,2.50
2022-09-12T08:24:09.604Z,2.80
2022-09-12T08:25:09.585Z,3.30
2022-09-12T08:26:09.558Z,2.60
2022-09-12T08:27:09.583Z,2.80
2022-09-12T08:28:09.539Z,2.70
2022-09-12T08:29:09.539Z,2.90
2022-09-12T08:30:09.498Z,2.90
2022-09-12T08:31:09.609Z,2.90
2022-09-12T08:32:09.476Z,2.60
2022-09-12T08:33:09.480Z,3.10
2022-09-12T08:34:09.477Z,2.50
2022-09-12T08:35:09.475Z,2.40
2022-09-12T08:36:09.419Z,2.70
2022-09-12T08:37:09.439Z,2.60
2022-09-12T08:38:09.418Z,2.60
2022-09-12T08:39:09.396Z,2.70
2022-09-12T08:40:09.461Z,2.60
2022-09-12T08:41:09.428Z,2.40
2022-09-12T08:43:09.342Z,2.50
2022-09-12T08:44:09.309Z,2.40
2022-09-12T08:45:09.324Z,2.90
2022-09-12T08:46:09.446Z,2.30
2022-09-12T08:47:09.302Z,2.50
2022-09-12T08:48:09.286Z,3.00
2022-09-12T08:49:09.273Z,2.40
2022-09-12T08:50:09.234Z,2.30
2022-09-12T08:51:09.252Z,2.40
2022-09-12T08:52:09.228Z,2.50
2022-09-12T08:53:09.194Z,2.70
2022-09-12T08:54:09.267Z,2.50
2022-09-12T08:55:09.210Z,2.50
2022-09-12T08:56:09.152Z,2.30
2022-09-12T08:57:09.153Z,2.40
2022-09-12T08:58:09.171Z,2.50
2022-09-12T08:59:09.132Z,2.20
2022-09-12T09:00:09.095Z,2.10
2022-09-12T09:01:09.134Z,2.30
2022-09-12T09:02:09.133Z,3.10
2022-09-12T09:03:09.096Z,2.20
2022-09-12T09:04:09.051Z,2.10
2022-09-12T09:05:09.037Z,2.90
2022-09-12T09:06:09.053Z,2.30
2022-09-12T09:07:09.012Z,2.30
2022-09-12T09:08:08.987Z,2.30
2022-09-12T09:09:08.975Z,2.60
2022-09-12T09:10:08.989Z,2.40
2022-09-12T09:11:08.973Z,2.30
2022-09-12T09:12:08.949Z,2.10
2022-09-12T09:13:08.955Z,2.80
2022-09-12T09:14:08.932Z,2.20
2022-09-12T09:15:08.929Z,2.20
2022-09-12T09:16:08.982Z,2.30
2022-09-12T09:17:08.951Z,2.20
2022-09-12T09:18:08.858Z,2.10
2022-09-12T09:19:08.868Z,2.30
2022-09-12T09:20:08.845Z,2.20
2022-09-12T09:21:08.842Z,3.10
2022-09-12T09:22:08.806Z,2.10
2022-09-12T09:23:08.799Z,2.00
2022-09-12T09:24:08.807Z,2.30
2022-09-12T09:25:08.797Z,2.20
2022-09-12T09:26:08.785Z,2.10
2022-09-12T09:27:29.789Z,2.30
2022-09-12T09:28:08.727Z,2.10
2022-09-12T09:29:08.724Z,2.00
2022-09-12T09:30:08.709Z,1.80
2022-09-12T09:31:08.799Z,2.20
2022-09-12T09:32:08.671Z,2.30
2022-09-12T09:33:08.654Z,2.10
2022-09-12T09:34:08.665Z,2.00
2022-09-12T09:35:08.631Z,2.20
2022-09-12T09:36:08.645Z,2.10
2022-09-12T09:37:08.604Z,2.30
2022-09-12T09:38:08.587Z,1.90
2022-09-12T09:39:08.619Z,2.00
2022-09-12T09:40:08.613Z,2.00
2022-09-12T09:41:08.593Z,2.60
2022-09-12T09:42:08.532Z,1.90
2022-09-12T09:43:08.536Z,2.10
2022-09-12T09:45:08.534Z,2.40
2022-09-12T09:46:08.540Z,2.10
2022-09-12T09:47:08.546Z,1.90
2022-09-12T09:48:08.485Z,2.10
2022-09-12T09:49:08.445Z,2.00
2022-09-12T09:50:08.422Z,1.70
2022-09-12T09:51:08.431Z,1.70
2022-09-12T09:52:08.433Z,1.80
2022-09-12T09:53:08.394Z,2.00
2022-09-12T09:54:08.374Z,1.70
2022-09-12T09:55:08.418Z,1.90
2022-09-12T09:56:08.348Z,1.90
2022-09-12T09:57:08.336Z,1.90
2022-09-12T09:58:08.362Z,1.80
2022-09-12T09:59:08.318Z,1.90
2022-09-12T10:00:08.310Z,2.30
2022-09-12T10:01:08.346Z,1.90
2022-09-12T10:02:08.391Z,2.00
2022-09-12T10:03:13.185Z,2.50
2022-09-12T10:04:08.275Z,1.90
2022-09-12T10:05:08.235Z,2.10
2022-09-12T10:06:08.247Z,2.00
2022-09-12T10:07:08.251Z,1.80
2022-09-12T10:08:08.196Z,2.50
2022-09-12T10:09:08.177Z,2.00
2022-09-12T10:10:08.169Z,4.20
2022-09-12T10:11:08.187Z,2.00
2022-09-12T10:12:08.137Z,1.90
2022-09-12T10:13:08.133Z,1.90
2022-09-12T10:14:08.133Z,1.80
2022-09-12T10:15:08.139Z,2.60
2022-09-12T10:16:08.166Z,2.10
2022-09-12T10:17:08.096Z,3.80
2022-09-12T10:18:08.057Z,2.60
2022-09-12T10:19:08.087Z,2.40
2022-09-12T10:20:21.199Z,1.80
2022-09-12T10:21:08.046Z,1.80
2022-09-12T10:22:08.009Z,1.80
2022-09-12T10:23:07.999Z,1.50
2022-09-12T10:24:07.976Z,2.00
2022-09-12T10:25:08.001Z,1.80
2022-09-12T10:26:07.974Z,1.90
2022-09-12T10:27:07.954Z,1.60
2022-09-12T10:28:07.927Z,2.30
2022-09-12T10:29:07.957Z,1.70
2022-09-12T10:30:07.967Z,1.90
2022-09-12T10:31:07.973Z,1.80
2022-09-12T10:32:07.887Z,1.80
2022-09-12T10:33:07.861Z,1.50
2022-09-12T10:34:07.854Z,1.80
2022-09-12T10:35:07.850Z,1.90
2022-09-12T10:36:07.840Z,2.10
2022-09-12T10:37:07.869Z,1.80
2022-09-12T10:38:07.789Z,1.60
2022-09-12T10:39:07.788Z,1.60
2022-09-12T10:40:07.851Z,1.90
2022-09-12T10:41:07.785Z,1.90
2022-09-12T10:42:07.746Z,2.10
2022-09-12T10:43:07.766Z,1.70
2022-09-12T10:44:07.713Z,1.90
2022-09-12T10:45:07.731Z,1.90
2022-09-12T10:46:07.747Z,1.80
2022-09-12T10:47:07.707Z,1.80
2022-09-12T10:48:07.871Z,2.80
2022-09-12T10:49:07.656Z,2.50
2022-09-12T10:50:07.630Z,1.90
2022-09-12T10:51:07.672Z,2.20
2022-09-12T10:52:07.610Z,1.80
2022-09-12T10:53:07.649Z,2.00
2022-09-12T10:54:07.586Z,1.70
2022-09-12T10:55:07.578Z,1.60
2022-09-12T10:56:07.561Z,1.80
2022-09-12T10:57:07.575Z,1.80
2022-09-12T10:58:07.558Z,1.80
2022-09-12T10:59:07.524Z,2.10
2022-09-12T11:00:07.502Z,1.80
2022-09-12T11:01:07.569Z,1.90
2022-09-12T11:02:07.524Z,3.20
2022-09-12T11:03:07.506Z,2.00
2022-09-12T11:04:07.455Z,2.00
2022-09-12T11:05:07.452Z,1.80
2022-09-12T11:06:07.433Z,1.90
2022-09-12T11:07:07.424Z,1.90
2022-09-12T11:08:07.434Z,2.80
2022-09-12T11:09:07.397Z,2.00
2022-09-12T11:10:07.387Z,5.60
2022-09-12T11:11:07.366Z,1.60
2022-09-12T11:12:07.368Z,1.50
2022-09-12T11:13:07.369Z,1.50
2022-09-12T11:14:07.332Z,1.90
2022-09-12T11:15:07.317Z,1.70
2022-09-12T11:16:07.424Z,1.70
2022-09-12T11:17:10.623Z,1.60
2022-09-12T11:18:07.322Z,1.60
2022-09-12T11:19:07.335Z,1.50
2022-09-12T11:20:07.259Z,1.40
2022-09-12T11:21:07.228Z,1.80
2022-09-12T11:22:07.233Z,1.70
2022-09-12T11:23:07.210Z,1.50
2022-09-12T11:24:07.228Z,1.90
2022-09-12T11:25:07.189Z,2.60
2022-09-12T11:26:07.179Z,1.60
2022-09-12T11:27:07.157Z,1.60
2022-09-12T11:28:07.169Z,1.60
2022-09-12T11:29:07.129Z,1.80
2022-09-12T11:30:07.125Z,1.80
2022-09-12T11:31:07.149Z,1.60
2022-09-12T11:32:07.139Z,3.00
2022-09-12T11:33:07.091Z,1.50
2022-09-12T11:34:07.079Z,1.80
2022-09-12T11:35:07.069Z,1.60
2022-09-12T11:36:07.056Z,1.70
2022-09-12T11:37:10.439Z,1.60
2022-09-12T11:38:07.023Z,1.60
2022-09-12T11:39:07.036Z,1.40
2022-09-12T11:40:07.067Z,2.30
2022-09-12T11:41:06.981Z,1.50
2022-09-12T11:42:06.966Z,2.00
2022-09-12T11:43:06.959Z,1.60
2022-09-12T11:44:06.978Z,1.60
2022-09-12T11:45:06.930Z,1.90
2022-09-12T11:46:07.042Z,2.70
2022-09-12T11:47:06.915Z,1.60
2022-09-12T11:48:06.900Z,1.60
2022-09-12T11:49:06.920Z,1.50
2022-09-12T11:50:06.868Z,1.50
2022-09-12T11:51:06.885Z,1.90
2022-09-12T11:52:06.859Z,1.80
2022-09-12T11:53:06.839Z,1.60
2022-09-12T11:54:06.823Z,1.60
2022-09-12T11:55:06.809Z,1.80
2022-09-12T11:56:07.435Z,1.50
2022-09-12T11:57:06.784Z,1.80
2022-09-12T11:58:06.769Z,1.30
2022-09-12T11:59:06.750Z,1.50
2022-09-12T12:00:06.761Z,1.80
2022-09-12T12:01:07.381Z,1.80
2022-09-12T12:02:06.765Z,2.20
2022-09-12T12:03:06.714Z,1.50
2022-09-12T12:04:06.709Z,1.70
2022-09-12T12:05:06.701Z,1.30
2022-09-12T12:06:07.399Z,1.50
2022-09-12T12:07:06.649Z,1.70
2022-09-12T12:08:06.629Z,1.30
2022-09-12T12:09:06.625Z,1.50
2022-09-12T12:10:06.623Z,1.50
2022-09-12T12:11:07.423Z,1.60
2022-09-12T12:12:06.585Z,1.50
2022-09-12T12:13:09.627Z,1.60
2022-09-12T12:14:06.589Z,2.20
2022-09-12T12:15:06.555Z,1.40
2022-09-12T12:16:06.638Z,1.60
2022-09-12T12:17:06.519Z,1.80
2022-09-12T12:18:06.545Z,1.80
2022-09-12T12:19:10.582Z,1.60
2022-09-12T12:20:08.637Z,1.70
2022-09-12T12:21:06.469Z,1.40
2022-09-12T12:22:06.470Z,1.60
2022-09-12T12:23:06.448Z,1.50
2022-09-12T12:24:06.486Z,2.20
2022-09-12T12:25:06.450Z,1.70
2022-09-12T12:26:06.434Z,1.60
2022-09-12T12:27:06.395Z,2.10
2022-09-12T12:28:06.396Z,1.40
2022-09-12T12:29:06.369Z,1.70
2022-09-12T12:30:06.389Z,2.70
2022-09-12T12:31:06.992Z,2.40
2022-09-12T12:32:06.331Z,2.10
2022-09-12T12:33:06.365Z,2.00
2022-09-12T12:34:06.311Z,1.90
2022-09-12T12:35:06.292Z,1.50
2022-09-12T12:36:06.913Z,1.70
2022-09-12T12:37:07.428Z,1.40
2022-09-12T12:38:06.266Z,1.50
2022-09-12T12:39:06.270Z,1.50
2022-09-12T12:40:06.290Z,1.60
2022-09-12T12:41:06.911Z,1.50
2022-09-12T12:42:06.236Z,1.60
2022-09-12T12:43:06.242Z,1.60
2022-09-12T12:44:06.176Z,1.70
2022-09-12T12:45:06.172Z,1.50
2022-09-12T12:46:08.944Z,1.40
2022-09-12T12:47:06.157Z,1.60
2022-09-12T12:48:08.187Z,1.50
2022-09-12T12:49:06.128Z,1.80
2022-09-12T12:50:06.105Z,1.50
2022-09-12T12:51:06.931Z,1.50
2022-09-12T12:52:06.076Z,1.40
2022-09-12T12:53:06.102Z,2.20
2022-09-12T12:54:09.787Z,1.70
2022-09-12T12:55:06.061Z,1.60
2022-09-12T12:56:08.914Z,1.60
2022-09-12T12:57:06.030Z,2.00
2022-09-12T12:58:06.040Z,1.60
2022-09-12T12:59:05.990Z,1.70
2022-09-12T13:00:05.991Z,1.50
2022-09-12T13:01:08.907Z,1.50
2022-09-12T13:02:06.043Z,1.40
2022-09-12T13:03:05.980Z,1.50
2022-09-12T13:04:05.941Z,1.60
2022-09-12T13:05:05.918Z,1.60
2022-09-12T13:06:07.447Z,1.50
2022-09-12T13:07:08.226Z,1.30
2022-09-12T13:08:05.898Z,1.40
2022-09-12T13:09:05.875Z,1.50
2022-09-12T13:10:05.968Z,1.80
2022-09-12T13:11:08.434Z,2.10
2022-09-12T13:12:05.867Z,1.40
2022-09-12T13:13:05.822Z,1.40
2022-09-12T13:14:05.830Z,1.80